createdAt,value
2023-10-10T00:01:45.866Z,99344.69
2023-10-10T00:04:13.152Z,99344.16
2023-10-10T00:06:41.447Z,99351.47
2023-10-10T00:09:12.532Z,99352.84
2023-10-10T00:11:47.104Z,99361.56
2023-10-10T00:14:19.692Z,99355.25
2023-10-10T00:16:55.627Z,99359.59
2023-10-10T00:19:25.490Z,99362.09
2023-10-10T00:21:52.325Z,99355.91
2023-10-10T00:24:26.932Z,99353.09
2023-10-10T00:26:54.306Z,99344.94
2023-10-10T00:29:27.497Z,99343.13
2023-10-10T00:32:06.807Z,99340.44
2023-10-10T00:34:35.614Z,99351.59
2023-10-10T00:37:08.875Z,99344.16
2023-10-10T00:39:38.860Z,99338.81
2023-10-10T00:42:18.764Z,99328.97
2023-10-10T00:44:45.656Z,99335.97
2023-10-10T00:47:14.795Z,99327.97
2023-10-10T00:49:44.781Z,99329.78
2023-10-10T00:52:16.558Z,99329.78
2023-10-10T00:54:44.854Z,99321.63
2023-10-10T00:57:17.138Z,99328.53
2023-10-10T00:59:45.119Z,99327.81
2023-10-10T01:02:18.409Z,99326.00
2023-10-10T01:04:54.658Z,99325.16
2023-10-10T01:07:22.890Z,99320.78
2023-10-10T01:10:08.876Z,99323.31
2023-10-10T01:12:40.690Z,99322.47
2023-10-10T01:15:35.237Z,99320.78
2023-10-10T01:18:02.542Z,99325.16
2023-10-10T01:20:46.520Z,99318.50
2023-10-10T01:23:16.769Z,99321.34
2023-10-10T01:25:47.459Z,99324.31
2023-10-10T01:28:24.683Z,99325.00
2023-10-10T01:31:05.577Z,99323.19
2023-10-10T01:33:36.382Z,99323.31
2023-10-10T01:36:14.420Z,99311.09
2023-10-10T01:38:45.579Z,99312.97
2023-10-10T01:41:25.436Z,99311.09
2023-10-10T01:43:55.404Z,99312.25
2023-10-10T01:46:31.207Z,99312.13
2023-10-10T01:48:58.707Z,99319.41
2023-10-10T01:51:26.139Z,99317.28
2023-10-10T01:53:53.852Z,99307.06
2023-10-10T01:56:20.644Z,99304.28
2023-10-10T01:58:51.814Z,99311.63
2023-10-10T02:01:20.660Z,99319.47
2023-10-10T02:03:49.225Z,99313.59
2023-10-10T02:06:27.397Z,99330.59
2023-10-10T02:08:54.596Z,99322.91
2023-10-10T02:11:24.821Z,99329.50
2023-10-10T02:13:55.060Z,99329.50
2023-10-10T02:16:36.315Z,99319.00
2023-10-10T02:19:17.055Z,99323.75
2023-10-10T02:21:49.017Z,99329.25
2023-10-10T02:24:31.339Z,99332.75
2023-10-10T02:26:58.299Z,99320.38
2023-10-10T02:29:30.930Z,99327.41
2023-10-10T02:32:20.655Z,99318.41
2023-10-10T02:35:06.351Z,99333.75
2023-10-10T02:37:42.075Z,99327.41
2023-10-10T02:40:15.972Z,99320.81
2023-10-10T02:43:12.637Z,99327.13
2023-10-10T02:45:46.047Z,99331.78
2023-10-10T02:48:21.609Z,99329.25
2023-10-10T02:50:52.929Z,99322.25
2023-10-10T02:53:23.742Z,99327.41
2023-10-10T02:55:53.362Z,99323.75
2023-10-10T02:58:23.076Z,99324.59
2023-10-10T03:00:54.229Z,99332.75
2023-10-10T03:03:21.231Z,99333.59
2023-10-10T03:05:59.587Z,99326.28
2023-10-10T03:08:32.110Z,99332.63
2023-10-10T03:11:02.053Z,99327.72
2023-10-10T03:13:48.826Z,99329.41
2023-10-10T03:16:21.431Z,99326.75
2023-10-10T03:19:03.541Z,99325.19
2023-10-10T03:21:49.168Z,99317.03
2023-10-10T03:24:28.892Z,99324.91
2023-10-10T03:27:21.643Z,99320.69
2023-10-10T03:29:48.819Z,99320.97
2023-10-10T03:32:47.038Z,99311.16
2023-10-10T03:35:35.069Z,99323.06
2023-10-10T03:38:22.138Z,99325.72
2023-10-10T03:41:07.337Z,99323.06
2023-10-10T03:43:52.697Z,99320.13
2023-10-10T03:46:38.252Z,99316.91
2023-10-10T03:49:23.309Z,99322.78
2023-10-10T03:52:08.538Z,99334.75
2023-10-10T03:54:53.672Z,99331.53
2023-10-10T03:57:38.969Z,99344.03
2023-10-10T04:00:25.309Z,99333.66
2023-10-10T04:03:10.787Z,99332.66
2023-10-10T04:05:56.389Z,99335.16
2023-10-10T04:08:41.830Z,99334.50
2023-10-10T04:11:30.759Z,99332.09
2023-10-10T04:14:16.537Z,99331.97
2023-10-10T04:17:02.368Z,99332.81
2023-10-10T04:19:48.294Z,99334.78
2023-10-10T04:22:33.537Z,99330.28
2023-10-10T04:25:18.839Z,99324.66
2023-10-10T04:28:04.178Z,99332.94
2023-10-10T04:30:49.531Z,99332.94
2023-10-10T04:33:34.889Z,99333.94
2023-10-10T04:36:20.268Z,99334.91
2023-10-10T04:39:05.349Z,99344.59
2023-10-10T04:41:51.132Z,99338.59
2023-10-10T04:44:36.380Z,99339.44
2023-10-10T04:47:22.370Z,99339.56
2023-10-10T04:50:07.729Z,99342.91
2023-10-10T04:52:53.214Z,99343.22
2023-10-10T04:55:38.692Z,99336.91
2023-10-10T04:58:24.367Z,99340.41
2023-10-10T05:01:09.931Z,99333.53
2023-10-10T05:03:55.349Z,99340.16
2023-10-10T05:06:40.982Z,99345.88
2023-10-10T05:09:26.429Z,99338.19
2023-10-10T05:12:12.959Z,99343.50
2023-10-10T05:14:58.559Z,99340.13
2023-10-10T05:17:51.435Z,99334.97
2023-10-10T05:20:37.108Z,99337.38
2023-10-10T05:23:22.739Z,99341.16
2023-10-10T05:25:52.625Z,99342.84
2023-10-10T05:28:21.228Z,99333.72
2023-10-10T05:30:48.173Z,99347.22
2023-10-10T05:33:15.625Z,99353.69
2023-10-10T05:35:50.317Z,99356.19
2023-10-10T05:38:18.329Z,99354.38
2023-10-10T05:40:48.400Z,99363.94
2023-10-10T05:43:20.497Z,99359.69
2023-10-10T05:45:47.358Z,99352.13
2023-10-10T05:48:15.944Z,99348.75
2023-10-10T05:50:43.962Z,99350.75
2023-10-10T05:53:11.232Z,99348.94
2023-10-10T05:55:38.956Z,99350.88
2023-10-10T05:58:06.808Z,99351.72
2023-10-10T06:00:38.141Z,99351.28
2023-10-10T06:03:08.951Z,99358.19
2023-10-10T06:05:36.383Z,99350.84
2023-10-10T06:08:07.460Z,99361.38
2023-10-10T06:10:34.861Z,99356.63
2023-10-10T06:13:12.881Z,99354.63
2023-10-10T06:15:40.880Z,99357.88
2023-10-10T06:18:14.237Z,99357.88
2023-10-10T06:20:58.178Z,99360.81
2023-10-10T06:23:34.452Z,99367.41
2023-10-10T06:26:01.869Z,99364.31
2023-10-10T06:28:29.890Z,99368.94
2023-10-10T06:30:56.959Z,99373.97
2023-10-10T06:33:29.540Z,99374.38
2023-10-10T06:36:21.864Z,99371.44
2023-10-10T06:39:19.702Z,99377.16
2023-10-10T06:41:49.493Z,99384.19
2023-10-10T06:44:16.807Z,99381.66
2023-10-10T06:46:50.532Z,99384.78
2023-10-10T06:49:19.631Z,99386.16
2023-10-10T06:51:46.676Z,99383.91
2023-10-10T06:54:29.627Z,99385.81
2023-10-10T06:57:01.401Z,99389.34
2023-10-10T06:59:29.093Z,99394.94
2023-10-10T07:02:01.435Z,99392.53
2023-10-10T07:04:29.178Z,99384.22
2023-10-10T07:07:02.525Z,99384.75
2023-10-10T07:09:32.483Z,99382.63
2023-10-10T07:12:12.967Z,99384.03
2023-10-10T07:14:47.808Z,99386.38
2023-10-10T07:17:15.872Z,99391.34
2023-10-10T07:20:03.396Z,99396.34
2023-10-10T07:22:37.282Z,99398.56
2023-10-10T07:25:33.458Z,99392.94
2023-10-10T07:28:02.533Z,99400.09
2023-10-10T07:30:36.542Z,99398.66
2023-10-10T07:33:06.279Z,99395.16
2023-10-10T07:35:37.884Z,99395.00
2023-10-10T07:38:05.091Z,99396.56
2023-10-10T07:40:32.552Z,99396.09
2023-10-10T07:43:04.868Z,99402.66
2023-10-10T07:45:35.777Z,99397.56
2023-10-10T07:48:08.862Z,99397.00
2023-10-10T07:50:36.678Z,99394.75
2023-10-10T07:53:07.108Z,99389.41
2023-10-10T07:55:53.883Z,99388.97
2023-10-10T07:58:37.463Z,99388.81
2023-10-10T08:01:17.922Z,99390.84
2023-10-10T08:03:46.199Z,99391.38
2023-10-10T08:06:18.331Z,99384.06
2023-10-10T08:08:46.661Z,99377.53
2023-10-10T08:11:26.110Z,99372.59
2023-10-10T08:13:54.876Z,99379.22
2023-10-10T08:16:23.796Z,99377.06
2023-10-10T08:18:54.176Z,99378.81
2023-10-10T08:21:23.747Z,99382.16
2023-10-10T08:23:58.022Z,99380.19
2023-10-10T08:26:30.540Z,99383.94
2023-10-10T08:28:57.802Z,99389.94
2023-10-10T08:31:24.636Z,99385.78
2023-10-10T08:33:51.738Z,99385.63
2023-10-10T08:36:27.158Z,99384.59
2023-10-10T08:38:57.342Z,99387.34
2023-10-10T08:41:29.984Z,99376.72
2023-10-10T08:44:02.813Z,99373.31
2023-10-10T08:46:31.444Z,99371.56
2023-10-10T08:49:05.935Z,99370.59
2023-10-10T08:51:36.212Z,99360.78
2023-10-10T08:54:11.427Z,99367.50
2023-10-10T08:57:01.471Z,99358.53
2023-10-10T08:59:30.694Z,99355.84
2023-10-10T09:02:18.441Z,99357.19
2023-10-10T09:04:46.743Z,99360.47
2023-10-10T09:07:32.221Z,99358.97
2023-10-10T09:10:15.287Z,99360.47
2023-10-10T09:12:54.601Z,99363.56
2023-10-10T09:15:21.679Z,99356.59
2023-10-10T09:17:50.264Z,99357.47
2023-10-10T09:20:31.602Z,99347.94
2023-10-10T09:23:05.931Z,99344.94
2023-10-10T09:25:42.491Z,99355.34
2023-10-10T09:28:12.581Z,99347.84
2023-10-10T09:30:46.986Z,99340.97
2023-10-10T09:33:29.953Z,99347.53
2023-10-10T09:36:10.018Z,99342.50
2023-10-10T09:38:45.184Z,99346.03
2023-10-10T09:41:29.046Z,99344.03
2023-10-10T09:44:19.960Z,99348.06
2023-10-10T09:47:08.377Z,99349.56
2023-10-10T09:49:58.572Z,99335.34
2023-10-10T09:52:44.599Z,99337.50
2023-10-10T09:55:13.691Z,99334.84
2023-10-10T09:58:06.521Z,99346.06
2023-10-10T10:00:47.215Z,99339.19
2023-10-10T10:03:30.367Z,99346.72
2023-10-10T10:06:32.933Z,99331.28
2023-10-10T10:09:34.065Z,99337.81
2023-10-10T10:12:10.348Z,99327.91
2023-10-10T10:14:55.912Z,99321.50
2023-10-10T10:18:13.665Z,99322.66
2023-10-10T10:21:06.439Z,99319.97
2023-10-10T10:23:46.764Z,99313.41
2023-10-10T10:26:33.206Z,99322.50
2023-10-10T10:29:09.743Z,99320.31
2023-10-10T10:31:40.828Z,99311.09
2023-10-10T10:34:31.025Z,99311.03
2023-10-10T10:37:07.668Z,99309.13
2023-10-10T10:39:36.506Z,99305.25
2023-10-10T10:42:13.519Z,99297.78
2023-10-10T10:45:00.400Z,99301.16
2023-10-10T10:47:37.418Z,99294.53
2023-10-10T10:50:06.858Z,99293.13
2023-10-10T10:52:45.488Z,99301.16
2023-10-10T10:55:24.320Z,99302.13
2023-10-10T10:58:07.263Z,99299.97
2023-10-10T11:00:58.341Z,99293.50
2023-10-10T11:03:33.967Z,99290.75
2023-10-10T11:06:09.462Z,99277.75
2023-10-10T11:09:00.773Z,99283.97
2023-10-10T11:11:28.372Z,99280.09
2023-10-10T11:14:00.842Z,99280.66
2023-10-10T11:16:46.543Z,99274.19
2023-10-10T11:19:23.883Z,99264.34
2023-10-10T11:21:50.676Z,99267.69
2023-10-10T11:24:25.834Z,99263.25
2023-10-10T11:27:07.726Z,99260.00
2023-10-10T11:30:02.551Z,99251.00
2023-10-10T11:32:38.008Z,99246.56
2023-10-10T11:35:17.387Z,99247.41
2023-10-10T11:37:50.466Z,99238.75
2023-10-10T11:40:37.976Z,99243.41
2023-10-10T11:43:06.818Z,99233.91
2023-10-10T11:45:42.681Z,99233.63
2023-10-10T11:48:17.507Z,99234.94
2023-10-10T11:50:49.826Z,99234.72
2023-10-10T11:53:25.841Z,99237.75
2023-10-10T11:55:53.710Z,99232.41
2023-10-10T11:58:20.764Z,99236.72
2023-10-10T12:01:01.006Z,99235.84
2023-10-10T12:03:54.243Z,99235.91
2023-10-10T12:06:28.128Z,99233.31
2023-10-10T12:08:55.448Z,99236.19
2023-10-10T12:11:23.663Z,99238.72
2023-10-10T12:13:54.245Z,99235.97
2023-10-10T12:16:25.682Z,99239.25
2023-10-10T12:18:55.128Z,99229.63
2023-10-10T12:21:23.894Z,99231.97
2023-10-10T12:24:02.187Z,99225.19
2023-10-10T12:26:37.463Z,99215.91
2023-10-10T12:29:04.285Z,99217.00
2023-10-10T12:31:35.030Z,99220.88
2023-10-10T12:34:02.214Z,99218.94
2023-10-10T12:36:33.949Z,99216.91
2023-10-10T12:39:01.211Z,99212.75
2023-10-10T12:41:29.340Z,99208.59
2023-10-10T12:43:56.670Z,99211.50
2023-10-10T12:46:23.570Z,99205.28
2023-10-10T12:48:53.230Z,99203.25
2023-10-10T12:51:23.977Z,99193.03
2023-10-10T12:54:01.562Z,99200.31
2023-10-10T12:56:29.694Z,99189.06
2023-10-10T12:59:19.291Z,99181.97
2023-10-10T13:01:56.887Z,99175.28
2023-10-10T13:04:30.313Z,99180.31
2023-10-10T13:07:04.012Z,99171.13
2023-10-10T13:09:32.284Z,99166.09
2023-10-10T13:11:59.172Z,99160.84
2023-10-10T13:14:26.709Z,99159.69
2023-10-10T13:16:54.228Z,99156.97
2023-10-10T13:19:22.134Z,99155.19
2023-10-10T13:21:49.405Z,99157.69
2023-10-10T13:24:16.974Z,99149.78
2023-10-10T13:26:46.971Z,99146.34
2023-10-10T13:29:18.184Z,99151.72
2023-10-10T13:31:48.322Z,99153.31
2023-10-10T13:34:23.803Z,99143.34
2023-10-10T13:36:51.166Z,99141.44
2023-10-10T13:39:34.500Z,99139.06
2023-10-10T13:42:01.555Z,99145.63
2023-10-10T13:44:28.442Z,99148.56
2023-10-10T13:46:56.236Z,99138.44
2023-10-10T13:49:23.119Z,99138.59
2023-10-10T13:51:53.270Z,99143.44
2023-10-10T13:54:20.774Z,99130.88
2023-10-10T13:56:47.951Z,99141.19
2023-10-10T13:59:17.826Z,99129.97
2023-10-10T14:01:44.714Z,99130.06
2023-10-10T14:04:25.345Z,99135.44
2023-10-10T14:06:55.351Z,99125.06
2023-10-10T14:09:33.730Z,99125.88
2023-10-10T14:12:04.709Z,99126.16
2023-10-10T14:14:31.907Z,99121.47
2023-10-10T14:16:59.477Z,99127.53
2023-10-10T14:19:26.916Z,99124.16
2023-10-10T14:21:54.376Z,99114.44
2023-10-10T14:24:22.129Z,99122.16
2023-10-10T14:26:52.250Z,99120.72
2023-10-10T14:29:19.983Z,99119.97
2023-10-10T14:31:47.128Z,99124.53
2023-10-10T14:34:25.670Z,99126.59
2023-10-10T14:36:54.899Z,99132.38
2023-10-10T14:39:45.669Z,99133.84
2023-10-10T14:42:15.353Z,99133.44
2023-10-10T14:44:44.783Z,99139.94
2023-10-10T14:47:12.751Z,99133.44
2023-10-10T14:49:40.106Z,99128.25
2023-10-10T14:52:08.228Z,99137.81
2023-10-10T14:54:39.552Z,99131.00
2023-10-10T14:57:07.795Z,99137.25
2023-10-10T14:59:35.406Z,99137.94
2023-10-10T15:02:05.410Z,99139.00
2023-10-10T15:04:34.720Z,99145.88
2023-10-10T15:07:02.070Z,99140.97
2023-10-10T15:09:29.200Z,99134.72
2023-10-10T15:12:03.037Z,99141.34
2023-10-10T15:14:33.695Z,99142.41
2023-10-10T15:17:02.212Z,99137.34
2023-10-10T15:19:29.389Z,99143.25
2023-10-10T15:21:57.624Z,99141.06
2023-10-10T15:24:25.352Z,99139.63
2023-10-10T15:26:53.113Z,99135.03
2023-10-10T15:29:22.635Z,99129.66
2023-10-10T15:31:52.066Z,99135.03
2023-10-10T15:34:19.184Z,99139.06
2023-10-10T15:36:47.279Z,99142.84
2023-10-10T15:39:14.879Z,99139.03
2023-10-10T15:41:46.258Z,99139.75
2023-10-10T15:44:17.609Z,99136.78
2023-10-10T15:46:45.244Z,99135.56
2023-10-10T15:49:29.539Z,99134.28
2023-10-10T15:52:04.983Z,99142.81
2023-10-10T15:54:35.586Z,99146.41
2023-10-10T15:57:05.531Z,99144.28
2023-10-10T15:59:32.459Z,99138.44
2023-10-10T16:01:59.743Z,99137.84
2023-10-10T16:04:28.906Z,99138.47
2023-10-10T16:06:55.674Z,99142.97
2023-10-10T16:09:31.623Z,99143.88
2023-10-10T16:11:58.930Z,99135.38
2023-10-10T16:14:27.134Z,99141.91
2023-10-10T16:16:54.445Z,99142.31
2023-10-10T16:19:24.658Z,99139.81
2023-10-10T16:21:56.810Z,99141.22
2023-10-10T16:24:29.085Z,99143.53
2023-10-10T16:27:00.699Z,99149.47
2023-10-10T16:29:35.744Z,99154.47
2023-10-10T16:32:14.313Z,99158.13
2023-10-10T16:34:44.704Z,99162.94
2023-10-10T16:37:15.853Z,99158.47
2023-10-10T16:39:46.542Z,99160.16
2023-10-10T16:42:15.489Z,99153.44
2023-10-10T16:44:42.507Z,99160.94
2023-10-10T16:47:09.672Z,99168.91
2023-10-10T16:49:38.645Z,99164.59
2023-10-10T16:52:07.211Z,99162.81
2023-10-10T16:54:37.018Z,99165.69
2023-10-10T16:57:07.192Z,99165.44
2023-10-10T16:59:34.140Z,99164.78
2023-10-10T17:02:02.650Z,99163.53
2023-10-10T17:04:31.074Z,99167.44
2023-10-10T17:06:58.013Z,99169.81
2023-10-10T17:09:27.516Z,99165.13
2023-10-10T17:12:03.837Z,99170.88
2023-10-10T17:14:32.289Z,99174.75
2023-10-10T17:17:01.655Z,99176.31
2023-10-10T17:19:29.024Z,99175.53
2023-10-10T17:22:02.426Z,99170.66
2023-10-10T17:24:29.580Z,99173.34
2023-10-10T17:26:56.555Z,99176.72
2023-10-10T17:29:28.188Z,99170.38
2023-10-10T17:31:55.471Z,99174.38
2023-10-10T17:34:32.469Z,99181.66
2023-10-10T17:37:00.591Z,99175.97
2023-10-10T17:39:35.282Z,99193.94
2023-10-10T17:42:02.373Z,99186.72
2023-10-10T17:44:29.327Z,99176.13
2023-10-10T17:46:56.554Z,99173.81
2023-10-10T17:49:23.459Z,99178.50
2023-10-10T17:51:50.546Z,99176.38
2023-10-10T17:54:24.961Z,99174.50
2023-10-10T17:56:52.401Z,99174.16
2023-10-10T17:59:20.948Z,99182.13
2023-10-10T18:01:47.952Z,99174.06
2023-10-10T18:04:17.053Z,99172.53
2023-10-10T18:06:46.494Z,99178.09
2023-10-10T18:12:03.051Z,99174.25
2023-10-10T18:14:30.413Z,99168.75
2023-10-10T18:17:00.374Z,99168.25
2023-10-10T18:19:30.121Z,99171.63
2023-10-10T18:21:58.102Z,99179.69
2023-10-10T18:24:28.800Z,99172.63
2023-10-10T18:26:58.951Z,99176.16
2023-10-10T18:29:27.614Z,99170.63
2023-10-10T18:31:59.950Z,99171.81
2023-10-10T18:34:27.516Z,99166.44
2023-10-10T18:36:56.958Z,99165.97
2023-10-10T18:39:32.711Z,99165.28
2023-10-10T18:42:01.936Z,99163.28
2023-10-10T18:44:29.419Z,99157.75
2023-10-10T18:46:58.557Z,99166.31
2023-10-10T18:49:27.755Z,99162.44
2023-10-10T18:51:55.548Z,99161.28
2023-10-10T18:54:23.908Z,99157.06
2023-10-10T18:56:51.402Z,99157.56
2023-10-10T18:59:19.589Z,99157.28
2023-10-10T19:01:46.916Z,99150.53
2023-10-10T19:04:17.013Z,99164.94
2023-10-10T19:06:44.309Z,99162.28
2023-10-10T19:09:14.110Z,99157.59
2023-10-10T19:11:47.212Z,99150.19
2023-10-10T19:14:18.596Z,99155.91
2023-10-10T19:16:48.689Z,99163.44
2023-10-10T19:19:17.364Z,99164.81
2023-10-10T19:21:46.491Z,99166.66
2023-10-10T19:24:14.388Z,99159.94
2023-10-10T19:26:42.480Z,99156.94
2023-10-10T19:29:12.115Z,99164.28
2023-10-10T19:31:42.409Z,99159.94
2023-10-10T19:34:14.490Z,99156.41
2023-10-10T19:36:44.570Z,99152.91
2023-10-10T19:39:12.397Z,99152.56
2023-10-10T19:41:39.690Z,99151.22
2023-10-10T19:44:07.870Z,99148.84
2023-10-10T19:46:34.906Z,99153.56
2023-10-10T19:49:03.507Z,99159.91
2023-10-10T19:51:30.405Z,99154.06
2023-10-10T19:53:58.374Z,99154.50
2023-10-10T19:56:26.613Z,99159.50
2023-10-10T19:58:54.808Z,99160.22
2023-10-10T20:01:27.736Z,99154.03
2023-10-10T20:03:57.499Z,99147.53
2023-10-10T20:06:31.494Z,99145.50
2023-10-10T20:08:59.672Z,99152.88
2023-10-10T20:11:28.316Z,99145.00
2023-10-10T20:13:57.466Z,99150.88
2023-10-10T20:16:27.186Z,99152.88
2023-10-10T20:18:56.205Z,99150.69
2023-10-10T20:21:25.653Z,99145.66
2023-10-10T20:23:52.481Z,99146.50
2023-10-10T20:26:20.503Z,99142.31
2023-10-10T20:28:48.923Z,99144.59
2023-10-10T20:31:19.335Z,99146.47
2023-10-10T20:33:49.402Z,99144.09
2023-10-10T20:36:17.485Z,99143.09
2023-10-10T20:38:45.562Z,99138.75
2023-10-10T20:41:16.083Z,99133.72
2023-10-10T20:43:44.274Z,99132.88
2023-10-10T20:46:19.610Z,99134.03
2023-10-10T20:48:48.538Z,99133.00
2023-10-10T20:51:15.661Z,99124.63
2023-10-10T20:53:47.712Z,99129.31
2023-10-10T20:56:16.229Z,99113.94
2023-10-10T20:58:43.537Z,99116.25
2023-10-10T21:01:17.000Z,99116.22
2023-10-10T21:03:45.235Z,99117.22
2023-10-10T21:06:13.091Z,99122.44
2023-10-10T21:08:41.273Z,99117.38
2023-10-10T21:11:09.954Z,99113.25
2023-10-10T21:13:37.922Z,99115.91
2023-10-10T21:16:17.422Z,99108.88
2023-10-10T21:18:46.428Z,99106.88
2023-10-10T21:21:16.731Z,99110.19
2023-10-10T21:23:44.248Z,99105.69
2023-10-10T21:26:12.920Z,99099.69
2023-10-10T21:28:39.666Z,99103.34
2023-10-10T21:31:11.860Z,99094.97
2023-10-10T21:33:45.096Z,99094.13
2023-10-10T21:36:15.070Z,99093.13
2023-10-10T21:38:42.017Z,99094.47
2023-10-10T21:41:10.962Z,99092.75
2023-10-10T21:43:38.625Z,99089.06
2023-10-10T21:46:07.136Z,99091.91
2023-10-10T21:48:34.087Z,99087.06
2023-10-10T21:51:04.420Z,99088.25
2023-10-10T21:53:33.204Z,99086.38
2023-10-10T21:56:00.959Z,99090.22
2023-10-10T21:58:27.758Z,99086.03
2023-10-10T22:00:56.629Z,99082.69
2023-10-10T22:03:24.161Z,99085.38
2023-10-10T22:05:50.994Z,99089.06
2023-10-10T22:08:17.936Z,99086.75
2023-10-10T22:10:46.284Z,99078.34
2023-10-10T22:13:16.140Z,99080.38
2023-10-10T22:15:43.202Z,99078.69
2023-10-10T22:18:12.923Z,99082.03
2023-10-10T22:20:40.073Z,99083.19
2023-10-10T22:23:06.978Z,99076.03
2023-10-10T22:25:36.040Z,99083.88
2023-10-10T22:28:05.002Z,99075.06
2023-10-10T22:30:39.272Z,99074.72
2023-10-10T22:33:11.477Z,99065.84
2023-10-10T22:35:39.965Z,99064.34
2023-10-10T22:38:07.187Z,99065.53
2023-10-10T22:40:34.775Z,99055.97
2023-10-10T22:43:03.684Z,99063.06
2023-10-10T22:45:36.492Z,99062.19
2023-10-10T22:48:05.393Z,99065.03
2023-10-10T22:50:33.019Z,99058.00
2023-10-10T22:53:05.007Z,99049.66
2023-10-10T22:55:35.849Z,99061.03
2023-10-10T22:58:08.408Z,99052.16
2023-10-10T23:00:39.278Z,99054.66
2023-10-10T23:03:12.441Z,99052.16
2023-10-10T23:05:40.480Z,99047.97
2023-10-10T23:08:07.816Z,99046.81
2023-10-10T23:10:35.787Z,99046.97
2023-10-10T23:13:05.408Z,99054.88
2023-10-10T23:15:32.192Z,99053.34
2023-10-10T23:18:00.957Z,99050.53
2023-10-10T23:20:28.995Z,99059.38
2023-10-10T23:23:04.674Z,99039.97
2023-10-10T23:25:32.769Z,99049.19
2023-10-10T23:28:00.002Z,99048.19
2023-10-10T23:30:29.044Z,99040.31
2023-10-10T23:32:58.220Z,99050.03
2023-10-10T23:35:28.029Z,99040.47
2023-10-10T23:38:01.621Z,99032.28
2023-10-10T23:40:49.020Z,99039.84
2023-10-10T23:43:20.341Z,99033.97
2023-10-10T23:45:55.693Z,99038.81
2023-10-10T23:48:30.108Z,99035.28
2023-10-10T23:50:57.860Z,99033.28
2023-10-10T23:53:24.890Z,99028.59
2023-10-10T23:55:56.034Z,99030.97
2023-10-10T23:58:26.522Z,99033.44
